Salmon Creek, California
Current Conditions -  °F | °C
As of 8:53 AM on Saturday 22 Nov 2014 (Local Time) from KSTS Reporting Station
Haze Haze  
Wind Chill: 17°   Ceiling: 4300
Heat Index: 17°   Visibility: 4mi
Dew Point: 16°   Wind: 10mph
Humidity: 93%   Direction: 340°NNW
Pressure: 30.05"   Gusts: 17mph
Location:  38.3575°N, 123.043°W
Report Text: KSTS 221653Z 34009G15KT 4SM BR FEW005 SCT024 OVC043 17/16 A3005 RMK AO2 PRESRR SLP169 T01670156
Loading
Personal Weather Stations






























Interactive Weather Map New forecast layout! Learn more

10-Day Weather Forecast

Advertisements
Track Severe Weather on mobile